Time;durP1;ratioP1;P1;durP2;ratioP2;P2;SDS_P1;SDS_P2;PMS_P1;PMS_P2;Temp;Humidity;BMP_temperature;BMP_pressure;BME280_temperature;BME280_humidity;BME280_pressure;Samples;Min_cycle;Max_cycle;Signal;HPM_P1;HPM_P2
2023/10/13 00:00:41;;;;;;;84.82;30.73;;;14.00;99.90;;;;;;5027158;28;20060;-62
2023/10/13 00:03:18;;;;;;;71.95;29.75;;;14.00;99.90;;;;;;5010797;28;20476;-62
2023/10/13 00:05:44;;;;;;;78.40;30.65;;;14.10;99.90;;;;;;5022106;28;20144;-62
2023/10/13 00:08:11;;;;;;;82.72;31.38;;;14.10;99.90;;;;;;5026691;28;20048;-62
2023/10/13 00:10:37;;;;;;;70.38;30.15;;;14.10;99.90;;;;;;5028259;28;20029;-62
2023/10/13 00:13:21;;;;;;;80.75;32.50;;;14.20;99.90;;;;;;5014945;28;20554;-62
2023/10/13 00:18:27;;;;;;;82.88;33.47;;;14.30;99.90;;;;;;5026677;28;20045;-62
2023/10/13 00:20:56;;;;;;;88.22;34.22;;;14.30;99.90;;;;;;5017243;28;20603;-62
2023/10/13 00:23:22;;;;;;;85.63;34.55;;;14.40;99.90;;;;;;5013356;28;20090;-62
2023/10/13 00:25:50;;;;;;;84.57;34.70;;;14.40;99.90;;;;;;5034276;28;20577;-62
2023/10/13 00:28:24;;;;;;;88.80;34.30;;;14.50;99.90;;;;;;5019851;28;20033;-62
2023/10/13 00:31:02;;;;;;;82.38;33.25;;;14.50;99.90;;;;;;5012900;28;20060;-62
2023/10/13 00:33:31;;;;;;;84.35;34.08;;;14.60;99.90;;;;;;5035669;28;20170;-62
2023/10/13 00:35:58;;;;;;;82.55;33.42;;;14.70;99.90;;;;;;5016178;28;20052;-62
2023/10/13 00:38:24;;;;;;;85.75;33.75;;;14.70;99.90;;;;;;5017537;28;20041;-62
2023/10/13 00:40:54;;;;;;;89.28;34.13;;;14.70;99.90;;;;;;5035597;28;20041;-62
2023/10/13 00:46:05;;;;;;;96.18;36.47;;;14.80;99.90;;;;;;5017275;28;20040;-62
2023/10/13 00:48:43;;;;;;;82.25;35.33;;;14.90;99.90;;;;;;5030639;28;20040;-62
2023/10/13 00:54:11;;;;;;;89.07;39.28;;;15.00;99.90;;;;;;4984921;28;20045;-62
2023/10/13 00:56:48;;;;;;;86.68;35.42;;;15.10;99.90;;;;;;5015877;28;20546;-62
2023/10/13 00:59:16;;;;;;;77.70;34.88;;;15.10;99.90;;;;;;5031291;28;20041;-62
2023/10/13 01:01:43;;;;;;;80.50;34.25;;;15.20;99.90;;;;;;5026173;28;20053;-62
2023/10/13 01:04:12;;;;;;;83.00;34.33;;;15.20;99.90;;;;;;5017023;28;20060;-63
2023/10/13 01:06:39;;;;;;;85.30;38.25;;;15.20;99.90;;;;;;5029427;28;20048;-62
2023/10/13 01:09:14;;;;;;;82.38;36.55;;;15.30;99.90;;;;;;5013634;28;20044;-62
2023/10/13 01:11:42;;;;;;;82.18;35.20;;;15.30;99.90;;;;;;4999024;28;20446;-62
2023/10/13 01:14:11;;;;;;;85.50;35.25;;;15.40;99.90;;;;;;5017064;28;20424;-62
2023/10/13 01:16:43;;;;;;;90.72;34.58;;;15.40;99.90;;;;;;5035293;28;20048;-62
2023/10/13 01:19:14;;;;;;;82.63;34.88;;;15.40;99.90;;;;;;5033537;28;20446;-62
2023/10/13 01:21:47;;;;;;;83.03;35.85;;;15.50;99.90;;;;;;5034279;28;20076;-62
2023/10/13 01:24:18;;;;;;;84.28;35.65;;;15.50;99.90;;;;;;5032844;28;20180;-62
2023/10/13 01:26:44;;;;;;;75.88;34.83;;;15.50;99.90;;;;;;5001591;28;20033;-62
2023/10/13 01:29:13;;;;;;;81.22;35.42;;;15.50;99.90;;;;;;5033924;28;20385;-62
2023/10/13 01:31:47;;;;;;;77.60;34.40;;;15.60;99.90;;;;;;5012777;28;20041;-62
2023/10/13 01:34:21;;;;;;;68.07;31.55;;;15.60;99.90;;;;;;5020363;28;20480;-62
2023/10/13 01:36:56;;;;;;;68.45;33.22;;;15.60;99.90;;;;;;5019785;28;20098;-62
2023/10/13 01:39:28;;;;;;;66.60;31.40;;;15.70;99.90;;;;;;5017461;28;20048;-62
2023/10/13 01:41:57;;;;;;;63.65;30.55;;;15.70;99.90;;;;;;5029824;28;20152;-62
2023/10/13 01:44:33;;;;;;;68.88;32.55;;;15.70;99.90;;;;;;5018223;28;20049;-62
2023/10/13 01:47:06;;;;;;;66.15;30.35;;;15.70;99.90;;;;;;5031118;28;20122;-62
2023/10/13 01:49:41;;;;;;;65.95;30.15;;;15.80;99.90;;;;;;5035140;28;20047;-62
2023/10/13 01:52:08;;;;;;;54.60;28.95;;;15.80;99.90;;;;;;5002318;28;20045;-62
2023/10/13 01:54:34;;;;;;;57.50;30.27;;;15.80;99.90;;;;;;5026763;28;20128;-62
2023/10/13 01:56:59;;;;;;;56.55;28.45;;;15.80;99.90;;;;;;5031519;28;20033;-62
2023/10/13 01:59:26;;;;;;;51.50;27.00;;;15.90;99.90;;;;;;5015007;28;20041;-62
2023/10/13 02:01:56;;;;;;;55.40;26.98;;;15.90;99.90;;;;;;5016593;28;20048;-62
2023/10/13 02:04:22;;;;;;;51.58;27.20;;;15.90;99.90;;;;;;5023216;28;20048;-62
2023/10/13 02:06:47;;;;;;;48.78;24.45;;;15.90;99.90;;;;;;5018662;28;20045;-62
2023/10/13 02:09:13;;;;;;;56.17;27.02;;;15.90;99.90;;;;;;5033707;28;20418;-62
2023/10/13 02:11:47;;;;;;;44.03;23.65;;;15.90;99.90;;;;;;5019354;28;20059;-62
2023/10/13 02:14:17;;;;;;;41.95;22.55;;;16.00;99.90;;;;;;5008562;28;20037;-62
2023/10/13 02:16:46;;;;;;;47.83;22.20;;;16.00;99.90;;;;;;5024946;28;20036;-62
2023/10/13 02:19:15;;;;;;;45.65;23.20;;;16.00;99.90;;;;;;5040072;28;20545;-62
2023/10/13 02:21:44;;;;;;;41.78;23.17;;;16.10;99.90;;;;;;5033585;28;20098;-62
2023/10/13 02:24:17;;;;;;;39.50;22.30;;;16.10;99.90;;;;;;5021191;28;20037;-62
2023/10/13 02:26:44;;;;;;;43.70;21.38;;;16.10;99.90;;;;;;5020623;28;20033;-62
2023/10/13 02:29:13;;;;;;;34.92;18.67;;;16.10;99.90;;;;;;5021508;28;20053;-62
2023/10/13 02:31:42;;;;;;;34.13;17.55;;;16.10;99.90;;;;;;5037100;28;20049;-62
2023/10/13 02:34:08;;;;;;;30.35;16.70;;;16.10;99.90;;;;;;5019061;28;20041;-62
2023/10/13 02:36:48;;;;;;;37.53;18.88;;;16.10;99.90;;;;;;5014118;28;20075;-62
2023/10/13 02:39:26;;;;;;;34.22;18.40;;;16.10;99.90;;;;;;5018412;28;20045;-62
2023/10/13 02:41:53;;;;;;;36.80;20.00;;;16.10;99.90;;;;;;5029977;28;20050;-62
2023/10/13 02:44:28;;;;;;;31.27;18.27;;;16.10;99.90;;;;;;5030470;28;20636;-62
2023/10/13 02:46:58;;;;;;;33.38;17.48;;;16.10;99.90;;;;;;5029699;28;20116;-62
2023/10/13 02:49:26;;;;;;;34.08;18.30;;;16.10;99.90;;;;;;5039049;28;20471;-62
2023/10/13 02:51:55;;;;;;;31.92;17.90;;;16.20;99.90;;;;;;5036469;28;20028;-62
2023/10/13 02:54:21;;;;;;;27.42;19.00;;;16.20;99.90;;;;;;5036786;28;20037;-62
2023/10/13 02:56:56;;;;;;;28.58;17.77;;;16.10;99.90;;;;;;5020733;28;20498;-62
2023/10/13 02:59:34;;;;;;;24.63;15.90;;;16.20;99.90;;;;;;5021122;28;20460;-62
2023/10/13 03:02:17;;;;;;;25.05;14.82;;;16.20;99.90;;;;;;5029730;28;20045;-62
2023/10/13 03:04:47;;;;;;;19.67;13.00;;;16.20;99.90;;;;;;5037607;28;20134;-62
2023/10/13 03:07:22;;;;;;;22.80;13.68;;;16.20;99.90;;;;;;5015346;28;20089;-62
2023/10/13 03:09:52;;;;;;;21.55;13.55;;;16.20;99.90;;;;;;5022759;28;20049;-62
2023/10/13 03:12:19;;;;;;;22.27;13.43;;;16.20;99.90;;;;;;5015787;28;20277;-61
2023/10/13 03:14:47;;;;;;;23.70;14.45;;;16.20;99.90;;;;;;5029780;28;20041;-62
2023/10/13 03:17:19;;;;;;;32.25;17.10;;;16.20;99.90;;;;;;5018858;28;20368;-62
2023/10/13 03:19:49;;;;;;;34.53;21.13;;;16.30;99.90;;;;;;5020061;28;20255;-62
2023/10/13 03:22:16;;;;;;;40.78;21.13;;;16.30;99.90;;;;;;5034284;28;20076;-61
2023/10/13 03:24:49;;;;;;;42.33;25.27;;;16.30;99.90;;;;;;5019609;28;20080;-62
2023/10/13 03:27:23;;;;;;;40.20;21.52;;;16.30;99.90;;;;;;5020364;28;20098;-61
2023/10/13 03:29:54;;;;;;;40.65;22.33;;;16.30;99.90;;;;;;5024058;28;20049;-61
2023/10/13 03:32:20;;;;;;;38.38;21.63;;;16.30;99.90;;;;;;5017555;28;20080;-62
2023/10/13 03:37:37;;;;;;;43.58;22.95;;;16.30;99.90;;;;;;5035719;28;20427;-62
2023/10/13 03:45:39;;;;;;;40.15;23.92;;;16.40;99.90;;;;;;5014756;28;20045;-61
2023/10/13 03:51:15;;;;;;;34.78;19.75;;;16.30;99.90;;;;;;5005022;28;20557;-61
2023/10/13 03:53:54;;;;;;;34.55;19.67;;;16.30;99.90;;;;;;5033280;28;20033;-61
2023/10/13 03:56:27;;;;;;;35.53;19.02;;;16.40;99.90;;;;;;5037547;28;20052;-61
2023/10/13 03:58:58;;;;;;;34.63;18.98;;;16.30;99.90;;;;;;5029828;28;20428;-61
2023/10/13 04:04:11;;;;;;;29.95;18.63;;;16.40;99.90;;;;;;5035483;28;20462;-61
2023/10/13 04:17:26;;;;;;;19.30;13.57;;;16.40;99.90;;;;;;5037020;28;20045;-61
2023/10/13 04:34:14;;;;;;;23.52;13.55;;;16.30;99.90;;;;;;5025272;28;20080;-61
2023/10/13 04:41:38;;;;;;;23.40;14.07;;;16.40;99.90;;;;;;5014672;28;20065;-61
2023/10/13 04:49:29;;;;;;;22.60;13.70;;;16.40;99.90;;;;;;5013849;28;20050;-61
2023/10/13 04:54:45;;;;;;;21.77;13.20;;;16.40;99.90;;;;;;5011084;28;20559;-61
2023/10/13 05:03:30;;;;;;;21.90;13.02;;;16.40;99.90;;;;;;4998131;28;20462;-61
2023/10/13 05:06:10;;;;;;;20.20;12.43;;;16.40;99.90;;;;;;5014669;28;20172;-59
2023/10/13 05:44:33;;;;;;;10.30;7.50;;;16.40;99.90;;;;;;5037610;28;20053;-62
2023/10/13 05:49:53;;;;;;;10.68;7.47;;;16.30;99.90;;;;;;5007490;28;20155;-60
2023/10/13 05:52:19;;;;;;;10.38;7.70;;;16.30;99.90;;;;;;5032996;28;20045;-62
2023/10/13 06:30:58;;;;;;;5.60;4.78;;;16.10;99.90;;;;;;5019038;28;20525;-63
2023/10/13 06:33:28;;;;;;;7.70;5.03;;;16.10;99.90;;;;;;5024270;28;20052;-63
2023/10/13 06:35:56;;;;;;;6.78;4.90;;;16.10;99.90;;;;;;5033150;28;20045;-63
2023/10/13 06:38:22;;;;;;;5.05;4.55;;;16.10;99.90;;;;;;5029326;28;20108;-63
2023/10/13 06:40:50;;;;;;;7.60;4.80;;;16.10;99.90;;;;;;5031836;28;20072;-63
2023/10/13 06:43:17;;;;;;;7.05;4.63;;;16.10;99.90;;;;;;5027084;28;20133;-63
2023/10/13 06:45:50;;;;;;;8.63;4.53;;;16.10;99.90;;;;;;5006211;28;20048;-63
2023/10/13 06:48:18;;;;;;;6.38;4.55;;;16.10;99.90;;;;;;4985160;28;20179;-64
2023/10/13 06:50:52;;;;;;;5.80;4.05;;;16.10;99.90;;;;;;5015140;28;20431;-63
2023/10/13 06:53:18;;;;;;;8.00;4.65;;;16.10;99.90;;;;;;5022311;28;20083;-64
2023/10/13 06:55:47;;;;;;;4.35;3.90;;;16.20;99.90;;;;;;5018951;28;20053;-63
2023/10/13 06:58:14;;;;;;;8.27;7.00;;;16.20;99.90;;;;;;5003365;28;20098;-64
2023/10/13 07:00:52;;;;;;;17.05;9.80;;;16.20;99.90;;;;;;5021802;28;20050;-63
2023/10/13 07:03:25;;;;;;;10.60;7.72;;;16.20;99.90;;;;;;5030926;28;20049;-63
2023/10/13 07:05:51;;;;;;;7.03;5.18;;;16.30;99.90;;;;;;5031812;28;20045;-63
2023/10/13 07:08:20;;;;;;;7.47;4.68;;;16.40;99.90;;;;;;4990830;28;20527;-64
2023/10/13 07:11:05;;;;;;;7.38;3.85;;;16.40;99.90;;;;;;5028853;28;20455;-64
2023/10/13 07:13:31;;;;;;;10.23;4.03;;;16.50;99.90;;;;;;5019311;28;20033;-64
2023/10/13 07:16:08;;;;;;;7.47;3.95;;;16.50;99.90;;;;;;5019147;28;20048;-63
2023/10/13 07:18:41;;;;;;;9.18;4.15;;;16.50;99.90;;;;;;5028592;28;20103;-64
2023/10/13 07:21:12;;;;;;;8.00;4.10;;;16.50;99.90;;;;;;5012172;28;20149;-63
2023/10/13 07:23:38;;;;;;;8.27;4.45;;;16.50;99.90;;;;;;5014591;28;20110;-63
2023/10/13 07:26:06;;;;;;;7.40;3.92;;;16.50;99.90;;;;;;5032237;28;20041;-63
2023/10/13 07:28:36;;;;;;;11.52;4.30;;;16.50;99.90;;;;;;5024922;28;20048;-64
2023/10/13 07:33:34;;;;;;;11.07;4.30;;;16.50;99.90;;;;;;5030099;28;20060;-64
2023/10/13 07:36:15;;;;;;;10.43;4.57;;;16.50;99.90;;;;;;5010505;28;20045;-63
2023/10/13 07:38:49;;;;;;;14.18;4.93;;;16.50;99.90;;;;;;5008652;28;20040;-64
2023/10/13 07:41:21;;;;;;;12.55;4.50;;;16.50;99.90;;;;;;5014218;28;20055;-63
2023/10/13 07:43:48;;;;;;;13.65;4.40;;;16.50;99.90;;;;;;5010622;28;20051;-64
2023/10/13 07:46:14;;;;;;;15.07;4.88;;;16.50;99.90;;;;;;5016466;28;20680;-63
2023/10/13 07:48:40;;;;;;;12.75;4.63;;;16.50;99.90;;;;;;5019969;28;20128;-63
2023/10/13 07:51:27;;;;;;;11.50;4.18;;;16.50;99.90;;;;;;4995648;28;20052;-63
2023/10/13 07:53:53;;;;;;;13.02;4.80;;;16.50;99.90;;;;;;5001509;28;20074;-64
2023/10/13 07:56:19;;;;;;;15.40;5.18;;;16.50;99.90;;;;;;5017736;28;20377;-64
2023/10/13 08:01:17;;;;;;;10.25;4.50;;;16.40;99.90;;;;;;5004338;28;20042;-64
2023/10/13 08:03:44;;;;;;;11.20;4.72;;;16.50;99.90;;;;;;5022460;28;20511;-63
2023/10/13 08:08:39;;;;;;;13.38;5.53;;;16.40;99.90;;;;;;5019755;28;20491;-63
2023/10/13 08:13:54;;;;;;;15.00;6.05;;;16.40;99.90;;;;;;5007093;28;20049;-63
2023/10/13 08:16:21;;;;;;;10.95;5.22;;;16.40;99.90;;;;;;5027579;28;20125;-63
2023/10/13 08:18:49;;;;;;;16.20;5.20;;;16.50;99.90;;;;;;5007997;28;20442;-64
2023/10/13 08:21:22;;;;;;;16.20;5.22;;;16.40;99.90;;;;;;4996688;28;20068;-63
2023/10/13 08:34:38;;;;;;;13.48;4.93;;;16.50;99.90;;;;;;5018284;28;20045;-63
2023/10/13 08:45:58;;;;;;;17.23;5.55;;;16.60;99.90;;;;;;5018307;28;20103;-63
2023/10/13 08:48:16;;;;;;;15.10;5.53;;;16.60;99.90;;;;;;4994113;28;20543;-64
2023/10/13 08:50:52;;;;;;;14.07;5.13;;;16.70;99.90;;;;;;5021396;28;20464;-64
2023/10/13 08:53:28;;;;;;;14.23;4.82;;;16.70;99.90;;;;;;5012138;28;24477;-63
2023/10/13 09:09:39;;;;;;;15.25;5.93;;;17.00;99.90;;;;;;4985985;28;20108;-64
2023/10/13 09:12:19;;;;;;;14.95;6.30;;;17.10;99.90;;;;;;5000782;28;20475;-63
2023/10/13 09:15:05;;;;;;;12.13;6.07;;;17.10;99.90;;;;;;5022507;28;20041;-63
2023/10/13 09:17:34;;;;;;;17.20;6.35;;;17.20;99.90;;;;;;5014509;28;20049;-64
2023/10/13 09:25:33;;;;;;;19.33;6.88;;;17.40;99.90;;;;;;5024784;28;20052;-63
2023/10/13 09:28:00;;;;;;;21.08;5.93;;;17.50;99.90;;;;;;5010606;28;20041;-63
2023/10/13 09:30:31;;;;;;;13.30;6.25;;;17.60;99.90;;;;;;5003294;28;20056;-64
2023/10/13 09:33:15;;;;;;;15.15;6.07;;;17.70;99.90;;;;;;5012242;28;20127;-63
2023/10/13 09:35:49;;;;;;;18.13;6.25;;;17.80;99.90;;;;;;4993355;28;20041;-63
2023/10/13 09:38:18;;;;;;;14.43;6.07;;;17.90;99.90;;;;;;4997505;28;20045;-63
2023/10/13 09:40:50;;;;;;;14.27;6.22;;;17.90;99.90;;;;;;5026444;28;20747;-64
2023/10/13 09:43:18;;;;;;;14.50;6.15;;;18.00;99.90;;;;;;5011423;28;20052;-63
2023/10/13 09:48:35;;;;;;;16.15;6.00;;;18.10;99.90;;;;;;5001534;28;20064;-64
2023/10/13 09:51:08;;;;;;;16.15;5.90;;;18.10;99.90;;;;;;5022038;28;20041;-64
2023/10/13 09:53:37;;;;;;;19.60;6.32;;;18.20;99.90;;;;;;5001983;28;20045;-64
2023/10/13 09:56:12;;;;;;;18.75;6.20;;;18.20;99.90;;;;;;4980091;28;20037;-64
2023/10/13 09:59:00;;;;;;;15.32;6.32;;;18.40;99.90;;;;;;5005758;28;20366;-64
2023/10/13 10:01:37;;;;;;;11.52;5.65;;;18.40;99.90;;;;;;5020193;28;20415;-63
2023/10/13 10:06:44;;;;;;;14.60;5.35;;;18.60;99.90;;;;;;5023547;28;20056;-64
2023/10/13 10:09:11;;;;;;;14.93;5.68;;;18.60;99.90;;;;;;5024960;28;20045;-64
2023/10/13 10:12:18;;;;;;;16.23;5.93;;;18.60;99.90;;;;;;4991582;28;20122;-64
2023/10/13 10:15:20;;;;;;;15.63;6.13;;;18.60;99.90;;;;;;5006408;28;20052;-64
2023/10/13 10:17:47;;;;;;;19.00;6.33;;;18.70;99.90;;;;;;5007613;28;20045;-64
2023/10/13 10:20:32;;;;;;;12.38;5.95;;;18.70;99.90;;;;;;5026208;28;20051;-64
2023/10/13 10:22:59;;;;;;;18.38;6.45;;;18.70;99.90;;;;;;5023817;28;20044;-64
2023/10/13 10:25:35;;;;;;;21.05;6.78;;;18.70;99.90;;;;;;4993545;28;20106;-64
2023/10/13 10:28:07;;;;;;;15.15;8.27;;;18.70;99.90;;;;;;5013431;28;20052;-64
2023/10/13 10:30:41;;;;;;;13.27;6.93;;;18.80;99.90;;;;;;5000257;28;20570;-64
2023/10/13 10:33:18;;;;;;;20.05;7.70;;;18.80;99.90;;;;;;5000408;28;20136;-64
2023/10/13 10:35:46;;;;;;;18.25;7.78;;;18.90;99.90;;;;;;4985624;28;20042;-64
2023/10/13 10:41:05;;;;;;;21.30;7.97;;;19.00;99.90;;;;;;4985111;28;20053;-64
2023/10/13 10:43:42;;;;;;;19.05;7.32;;;19.10;99.90;;;;;;4999334;28;20033;-64
2023/10/13 10:46:25;;;;;;;12.27;6.22;;;19.20;99.90;;;;;;4990703;28;20048;-64
2023/10/13 10:48:56;;;;;;;14.57;6.85;;;19.30;99.90;;;;;;4991252;28;20049;-64
2023/10/13 10:51:22;;;;;;;21.10;7.57;;;19.30;99.90;;;;;;5007509;28;20033;-64
2023/10/13 10:53:50;;;;;;;16.25;6.95;;;19.30;99.90;;;;;;4974090;28;20045;-64
2023/10/13 10:57:10;;;;;;;13.23;5.55;;;19.40;99.90;;;;;;4994646;28;20206;-64
2023/10/13 10:59:21;;;;;;;14.35;5.57;;;19.40;99.90;;;;;;4984654;28;20084;-64
2023/10/13 11:01:47;;;;;;;15.27;6.10;;;19.40;99.90;;;;;;5006595;28;20045;-64
2023/10/13 11:07:00;;;;;;;17.73;7.53;;;19.50;99.90;;;;;;5005174;28;20041;-64
2023/10/13 11:09:36;;;;;;;15.85;5.97;;;19.80;99.90;;;;;;4974315;28;20043;-64
2023/10/13 11:12:16;;;;;;;19.77;7.35;;;20.00;99.90;;;;;;4991604;28;20038;-64
2023/10/13 11:14:50;;;;;;;19.33;6.93;;;20.10;99.90;;;;;;5002700;28;20042;-64
2023/10/13 11:17:29;;;;;;;18.58;6.50;;;20.10;99.90;;;;;;4991461;28;20041;-64
2023/10/13 11:19:55;;;;;;;20.42;6.97;;;20.10;99.90;;;;;;4990000;28;20050;-64
2023/10/13 11:22:41;;;;;;;18.08;6.40;;;20.00;99.90;;;;;;4993715;28;20512;-64
2023/10/13 11:25:11;;;;;;;16.15;6.07;;;19.90;99.90;;;;;;4990633;28;20045;-64
2023/10/13 11:30:25;;;;;;;22.08;7.18;;;19.80;99.90;;;;;;5018615;28;20053;-64
2023/10/13 11:33:05;;;;;;;19.90;6.97;;;19.80;99.90;;;;;;5030217;28;20040;-64
2023/10/13 11:38:27;;;;;;;17.38;5.75;;;19.90;99.90;;;;;;4986313;28;20103;-64
2023/10/13 11:48:36;;;;;;;15.95;5.40;;;19.90;99.90;;;;;;5020692;28;20598;-64
2023/10/13 11:51:23;;;;;;;23.90;5.72;;;19.90;99.90;;;;;;5025202;28;20037;-64
2023/10/13 11:53:53;;;;;;;20.80;5.90;;;19.80;99.90;;;;;;5005780;28;20117;-64
2023/10/13 11:56:23;;;;;;;17.38;5.50;;;19.70;99.90;;;;;;5019090;28;20045;-64
2023/10/13 11:58:49;;;;;;;16.98;5.70;;;19.70;99.90;;;;;;5022013;28;20053;-64
2023/10/13 12:11:42;;;;;;;18.60;5.97;;;19.30;99.90;;;;;;5002107;28;20052;-64
2023/10/13 12:14:16;;;;;;;16.20;5.85;;;19.40;99.90;;;;;;4998868;28;20120;-67
2023/10/13 12:16:51;;;;;;;17.38;6.30;;;19.40;99.90;;;;;;5005273;28;20126;-67
2023/10/13 12:19:17;;;;;;;18.52;6.35;;;19.50;99.90;;;;;;5015376;28;20079;-67
2023/10/13 12:21:44;;;;;;;20.50;7.32;;;19.50;99.90;;;;;;5018074;28;20103;-67
2023/10/13 12:24:31;;;;;;;15.60;8.18;;;19.50;99.90;;;;;;5004030;28;20052;-67
2023/10/13 12:26:57;;;;;;;20.38;7.15;;;19.50;99.90;;;;;;5018949;28;20048;-67
2023/10/13 12:29:28;;;;;;;20.77;7.47;;;19.60;99.90;;;;;;5015911;28;20144;-67
2023/10/13 12:32:11;;;;;;;22.50;7.80;;;19.60;99.90;;;;;;5016662;28;20053;-67
2023/10/13 12:53:55;;;;;;;17.55;6.32;;;19.30;99.90;;;;;;4996731;28;20045;-66
2023/10/13 12:56:28;;;;;;;17.88;6.93;;;19.30;99.90;;;;;;5005940;28;20037;-66
2023/10/13 12:58:54;;;;;;;16.40;6.78;;;19.20;99.90;;;;;;4997566;28;20037;-66
2023/10/13 13:01:32;;;;;;;19.63;6.95;;;19.20;99.90;;;;;;5010525;28;20049;-67
2023/10/13 13:03:59;;;;;;;21.13;7.20;;;19.20;99.90;;;;;;5011689;28;20865;-66
2023/10/13 13:06:29;;;;;;;17.08;7.20;;;19.10;99.90;;;;;;5017708;28;20136;-66
2023/10/13 13:09:02;;;;;;;20.15;6.78;;;19.10;99.90;;;;;;5029384;28;20049;-66
2023/10/13 13:11:31;;;;;;;22.63;7.35;;;19.00;99.90;;;;;;5010569;28;20044;-66
2023/10/13 13:13:57;;;;;;;27.80;8.10;;;19.00;99.90;;;;;;5027772;28;20796;-66
2023/10/13 13:16:30;;;;;;;12.95;6.40;;;18.90;99.90;;;;;;5018183;28;20171;-65
2023/10/13 13:18:56;;;;;;;22.05;7.53;;;18.90;99.90;;;;;;5022611;28;20041;-66
2023/10/13 13:21:24;;;;;;;24.88;8.07;;;18.80;99.90;;;;;;5021851;28;20090;-66
2023/10/13 13:23:56;;;;;;;22.00;7.70;;;18.80;99.90;;;;;;5004585;28;20518;-66
2023/10/13 13:26:25;;;;;;;20.92;7.25;;;18.80;99.90;;;;;;5037205;28;20132;-66
2023/10/13 13:28:51;;;;;;;15.80;6.90;;;18.70;99.90;;;;;;5012005;28;20048;-66
2023/10/13 13:31:17;;;;;;;22.00;8.20;;;18.70;99.90;;;;;;5004132;28;20057;-66
2023/10/13 13:33:43;;;;;;;14.80;6.82;;;18.70;99.90;;;;;;4973585;28;20038;-66
2023/10/13 13:36:16;;;;;;;17.67;7.40;;;18.60;99.90;;;;;;4978987;28;20037;-66
2023/10/13 13:38:46;;;;;;;17.23;7.53;;;18.60;99.90;;;;;;5005736;28;20492;-66
2023/10/13 13:41:16;;;;;;;21.60;8.07;;;18.60;99.90;;;;;;5020732;28;20045;-66
2023/10/13 13:46:24;;;;;;;19.13;7.20;;;18.60;99.90;;;;;;4975040;28;20394;-66
2023/10/13 13:48:51;;;;;;;22.67;7.65;;;18.50;99.90;;;;;;4993545;28;20652;-66
2023/10/13 13:51:26;;;;;;;19.20;6.93;;;18.60;99.90;;;;;;5007571;28;20132;-66
2023/10/13 13:53:52;;;;;;;19.70;7.30;;;18.60;99.90;;;;;;4982975;28;20120;-66
2023/10/13 13:56:19;;;;;;;20.88;7.90;;;18.60;99.90;;;;;;4981284;28;25508;-66
2023/10/13 13:58:47;;;;;;;25.05;7.25;;;18.60;99.90;;;;;;4956231;28;20052;-66
2023/10/13 14:01:14;;;;;;;16.85;6.95;;;18.60;99.90;;;;;;4978235;28;20981;-66
2023/10/13 14:03:50;;;;;;;19.52;7.53;;;18.60;99.90;;;;;;4972063;28;20051;-66
2023/10/13 14:06:24;;;;;;;21.17;7.10;;;18.60;99.90;;;;;;4993341;28;20049;-66
2023/10/13 14:08:54;;;;;;;25.83;7.63;;;18.60;99.90;;;;;;4972313;28;20045;-66
2023/10/13 14:13:49;;;;;;;17.50;6.68;;;18.60;99.90;;;;;;4981297;28;20057;-66
2023/10/13 14:16:16;;;;;;;26.15;6.95;;;18.60;99.90;;;;;;4999951;28;20041;-66
2023/10/13 14:18:51;;;;;;;21.02;7.45;;;18.60;99.90;;;;;;5011165;28;20042;-66
2023/10/13 14:21:18;;;;;;;16.30;7.20;;;18.70;99.90;;;;;;4996766;28;20052;-66
2023/10/13 14:23:49;;;;;;;22.88;7.03;;;18.70;99.90;;;;;;4990394;28;20081;-66
2023/10/13 14:26:21;;;;;;;17.35;7.05;;;18.70;99.90;;;;;;4989943;28;20077;-66
2023/10/13 14:29:09;;;;;;;19.65;6.95;;;18.70;99.90;;;;;;4990683;28;20060;-66
2023/10/13 14:31:39;;;;;;;20.40;7.35;;;18.70;99.90;;;;;;4986926;28;20045;-63
2023/10/13 14:34:06;;;;;;;13.95;6.93;;;18.70;99.90;;;;;;4988417;28;20057;-63
2023/10/13 14:36:35;;;;;;;21.35;7.10;;;18.70;99.90;;;;;;4987777;28;20191;-63
2023/10/13 14:39:02;;;;;;;12.73;6.45;;;18.70;99.90;;;;;;5006051;28;20752;-63
2023/10/13 14:41:29;;;;;;;22.00;6.88;;;18.70;99.90;;;;;;4993647;28;20397;-63
2023/10/13 14:44:04;;;;;;;19.15;6.95;;;18.70;99.90;;;;;;4994144;28;20393;-63
2023/10/13 14:46:31;;;;;;;18.38;6.35;;;18.70;99.90;;;;;;4984717;28;20067;-63
2023/10/13 14:48:57;;;;;;;19.70;6.90;;;18.70;99.90;;;;;;4993007;28;20045;-63
2023/10/13 14:51:25;;;;;;;21.08;6.82;;;18.70;99.90;;;;;;5004768;28;20045;-63
2023/10/13 14:53:55;;;;;;;18.75;6.57;;;18.70;99.90;;;;;;5002595;28;20034;-63
2023/10/13 14:56:26;;;;;;;27.20;7.82;;;18.70;99.90;;;;;;4993722;28;20064;-63
2023/10/13 14:58:52;;;;;;;24.35;7.28;;;18.70;99.90;;;;;;4968383;28;20104;-63
2023/10/13 15:01:24;;;;;;;18.77;7.28;;;18.60;99.90;;;;;;4981432;28;23238;-63
2023/10/13 15:03:57;;;;;;;18.60;6.82;;;18.60;99.90;;;;;;4981963;28;20047;-63
2023/10/13 15:06:25;;;;;;;13.27;6.40;;;18.60;99.90;;;;;;4989256;28;20061;-63
2023/10/13 15:08:54;;;;;;;19.92;7.30;;;18.60;99.90;;;;;;4994985;28;20122;-63
2023/10/13 15:11:21;;;;;;;24.75;7.38;;;18.60;99.90;;;;;;4999953;28;20444;-63
2023/10/13 15:13:50;;;;;;;19.48;7.10;;;18.60;99.90;;;;;;4996303;28;20762;-63
2023/10/13 15:16:21;;;;;;;21.25;7.32;;;18.70;99.90;;;;;;5010162;28;20056;-63
2023/10/13 15:18:51;;;;;;;21.50;6.93;;;18.70;99.90;;;;;;5010228;28;20041;-63
2023/10/13 15:21:22;;;;;;;22.45;6.88;;;18.60;99.90;;;;;;5016065;28;20498;-63
2023/10/13 15:23:51;;;;;;;14.73;6.72;;;18.60;99.90;;;;;;4985589;28;20511;-63
2023/10/13 15:26:17;;;;;;;17.10;6.60;;;18.60;99.90;;;;;;4984941;28;20045;-63
2023/10/13 15:28:49;;;;;;;19.52;6.68;;;18.60;99.90;;;;;;4999549;28;20052;-63
2023/10/13 15:31:37;;;;;;;23.23;6.95;;;18.50;99.90;;;;;;5028375;28;20344;-63
2023/10/13 15:34:12;;;;;;;20.05;6.85;;;18.50;99.90;;;;;;5005481;28;20059;-63
2023/10/13 15:36:39;;;;;;;18.65;7.35;;;18.50;99.90;;;;;;5037354;28;20491;-63
2023/10/13 15:39:08;;;;;;;15.02;5.97;;;18.50;99.90;;;;;;5019929;28;20041;-63
2023/10/13 15:41:34;;;;;;;16.33;6.57;;;18.40;99.90;;;;;;5019529;28;20066;-63
2023/10/13 15:44:00;;;;;;;16.90;6.72;;;18.40;99.90;;;;;;5015248;28;20069;-63
2023/10/13 15:46:26;;;;;;;20.08;7.28;;;18.40;99.90;;;;;;5029135;28;20586;-62
2023/10/13 15:48:53;;;;;;;20.42;6.22;;;18.40;99.90;;;;;;5033313;28;20055;-63
2023/10/13 15:51:19;;;;;;;17.85;6.53;;;18.40;99.90;;;;;;5038115;28;20076;-63
2023/10/13 15:53:47;;;;;;;17.35;6.55;;;18.40;99.90;;;;;;5015211;28;20083;-63
2023/10/13 15:56:14;;;;;;;15.13;6.55;;;18.40;99.90;;;;;;5019716;28;20491;-63
2023/10/13 15:58:43;;;;;;;14.88;6.85;;;18.40;99.90;;;;;;5037946;28;20029;-63
2023/10/13 16:01:12;;;;;;;19.52;6.82;;;18.40;99.90;;;;;;5013912;28;20561;-63
2023/10/13 16:03:40;;;;;;;25.13;7.43;;;18.40;99.90;;;;;;5039136;28;21330;-63
2023/10/13 16:06:09;;;;;;;20.55;8.40;;;18.40;99.90;;;;;;5028756;28;20094;-63
2023/10/13 16:08:42;;;;;;;22.33;7.75;;;18.40;99.90;;;;;;5013112;28;20083;-63
2023/10/13 16:11:19;;;;;;;19.80;7.13;;;18.30;99.90;;;;;;5027841;28;20131;-63
2023/10/13 16:13:46;;;;;;;21.77;7.60;;;18.30;99.90;;;;;;5021844;28;20079;-63
2023/10/13 16:16:22;;;;;;;16.83;7.10;;;18.30;99.90;;;;;;5021041;28;20059;-63
2023/10/13 16:18:51;;;;;;;20.00;7.35;;;18.30;99.90;;;;;;5021157;28;20040;-63
2023/10/13 16:21:18;;;;;;;19.52;6.68;;;18.30;99.90;;;;;;5017123;28;20048;-63
2023/10/13 16:23:47;;;;;;;16.58;6.45;;;18.20;99.90;;;;;;5013952;28;20037;-63
2023/10/13 16:26:14;;;;;;;21.00;6.88;;;18.20;99.90;;;;;;5029249;28;20475;-63
2023/10/13 16:28:39;;;;;;;13.57;6.45;;;18.20;99.90;;;;;;5022975;28;20049;-63
2023/10/13 16:31:07;;;;;;;14.48;6.47;;;18.20;99.90;;;;;;4985394;28;20091;-63
2023/10/13 16:33:39;;;;;;;17.65;6.45;;;18.20;99.90;;;;;;4982225;28;20045;-63
2023/10/13 16:36:08;;;;;;;14.98;6.20;;;18.20;99.90;;;;;;4996537;28;20044;-63
2023/10/13 16:38:37;;;;;;;16.15;6.47;;;18.20;99.90;;;;;;5007194;28;20488;-63
2023/10/13 16:41:08;;;;;;;18.17;6.47;;;18.20;99.90;;;;;;4988317;28;20819;-63
2023/10/13 16:43:35;;;;;;;17.70;5.93;;;18.20;99.90;;;;;;4987057;28;20056;-63
2023/10/13 16:46:06;;;;;;;22.88;6.13;;;18.10;99.90;;;;;;4985496;28;20053;-63
2023/10/13 16:48:35;;;;;;;15.80;5.65;;;18.10;99.90;;;;;;4986436;28;20046;-63
2023/10/13 16:51:01;;;;;;;19.15;5.70;;;18.10;99.90;;;;;;5001554;28;20544;-63
2023/10/13 16:53:27;;;;;;;11.32;5.00;;;18.10;99.90;;;;;;5000353;28;20114;-63
2023/10/13 16:55:53;;;;;;;15.48;4.80;;;18.10;99.90;;;;;;5002954;28;20129;-63
2023/10/13 16:58:19;;;;;;;15.98;5.65;;;18.10;99.90;;;;;;5012735;28;20092;-63
2023/10/13 17:00:51;;;;;;;11.45;5.25;;;18.10;99.90;;;;;;4987484;28;20132;-63